sensor_id;sensor_type;location;lat;lon;timestamp;P1;durP1;ratioP1;P2;durP2;ratioP2
10811;SDS011;5458;51.496;7.334;2023-01-04T00:01:15;3.42;;;1.80;;
10811;SDS011;5458;51.496;7.334;2023-01-04T00:03:42;5.80;;;2.35;;
10811;SDS011;5458;51.496;7.334;2023-01-04T00:06:09;6.00;;;2.17;;
10811;SDS011;5458;51.496;7.334;2023-01-04T00:08:37;4.57;;;1.90;;
10811;SDS011;5458;51.496;7.334;2023-01-04T00:11:03;2.63;;;1.83;;
10811;SDS011;5458;51.496;7.334;2023-01-04T00:13:31;2.40;;;1.92;;
10811;SDS011;5458;51.496;7.334;2023-01-04T00:15:57;4.05;;;2.47;;
10811;SDS011;5458;51.496;7.334;2023-01-04T00:18:28;3.67;;;2.38;;
10811;SDS011;5458;51.496;7.334;2023-01-04T00:20:55;6.18;;;2.10;;
10811;SDS011;5458;51.496;7.334;2023-01-04T00:23:30;5.88;;;1.88;;
10811;SDS011;5458;51.496;7.334;2023-01-04T00:25:55;3.42;;;2.15;;
10811;SDS011;5458;51.496;7.334;2023-01-04T00:28:21;3.50;;;1.83;;
10811;SDS011;5458;51.496;7.334;2023-01-04T00:30:46;3.08;;;1.50;;
10811;SDS011;5458;51.496;7.334;2023-01-04T00:33:12;4.72;;;2.75;;
10811;SDS011;5458;51.496;7.334;2023-01-04T00:35:37;2.60;;;1.70;;
10811;SDS011;5458;51.496;7.334;2023-01-04T00:38:03;4.45;;;1.90;;
10811;SDS011;5458;51.496;7.334;2023-01-04T00:40:28;2.50;;;1.70;;
10811;SDS011;5458;51.496;7.334;2023-01-04T00:42:54;3.28;;;1.65;;
10811;SDS011;5458;51.496;7.334;2023-01-04T00:45:20;3.85;;;1.70;;
10811;SDS011;5458;51.496;7.334;2023-01-04T00:47:45;3.38;;;2.00;;
10811;SDS011;5458;51.496;7.334;2023-01-04T00:50:11;4.30;;;2.10;;
10811;SDS011;5458;51.496;7.334;2023-01-04T00:52:36;1.65;;;1.50;;
10811;SDS011;5458;51.496;7.334;2023-01-04T00:55:02;3.53;;;1.83;;
10811;SDS011;5458;51.496;7.334;2023-01-04T00:57:27;4.60;;;2.10;;
10811;SDS011;5458;51.496;7.334;2023-01-04T00:59:53;2.53;;;1.50;;
10811;SDS011;5458;51.496;7.334;2023-01-04T01:02:18;4.65;;;1.80;;
10811;SDS011;5458;51.496;7.334;2023-01-04T01:04:44;3.90;;;1.80;;
10811;SDS011;5458;51.496;7.334;2023-01-04T01:07:09;6.28;;;1.92;;
10811;SDS011;5458;51.496;7.334;2023-01-04T01:09:35;2.92;;;1.88;;
10811;SDS011;5458;51.496;7.334;2023-01-04T01:12:01;4.20;;;1.80;;
10811;SDS011;5458;51.496;7.334;2023-01-04T01:14:26;4.85;;;2.00;;
10811;SDS011;5458;51.496;7.334;2023-01-04T01:16:52;3.13;;;1.70;;
10811;SDS011;5458;51.496;7.334;2023-01-04T01:19:18;2.97;;;1.67;;
10811;SDS011;5458;51.496;7.334;2023-01-04T01:21:43;2.75;;;2.08;;
10811;SDS011;5458;51.496;7.334;2023-01-04T01:24:14;3.10;;;1.92;;
10811;SDS011;5458;51.496;7.334;2023-01-04T01:26:41;5.13;;;1.80;;
10811;SDS011;5458;51.496;7.334;2023-01-04T01:29:06;3.90;;;1.80;;
10811;SDS011;5458;51.496;7.334;2023-01-04T01:31:32;4.20;;;1.75;;
10811;SDS011;5458;51.496;7.334;2023-01-04T01:33:57;4.07;;;2.13;;
10811;SDS011;5458;51.496;7.334;2023-01-04T01:36:25;2.88;;;1.75;;
10811;SDS011;5458;51.496;7.334;2023-01-04T01:38:52;2.42;;;1.20;;
10811;SDS011;5458;51.496;7.334;2023-01-04T01:41:20;3.17;;;1.67;;
10811;SDS011;5458;51.496;7.334;2023-01-04T01:43:57;4.00;;;1.60;;
10811;SDS011;5458;51.496;7.334;2023-01-04T01:46:50;4.40;;;2.15;;
10811;SDS011;5458;51.496;7.334;2023-01-04T01:51:55;4.15;;;2.33;;
10811;SDS011;5458;51.496;7.334;2023-01-04T01:54:45;3.33;;;2.10;;
10811;SDS011;5458;51.496;7.334;2023-01-04T01:57:13;5.25;;;2.33;;
10811;SDS011;5458;51.496;7.334;2023-01-04T01:59:42;3.75;;;2.28;;
10811;SDS011;5458;51.496;7.334;2023-01-04T02:02:10;2.95;;;1.77;;
10811;SDS011;5458;51.496;7.334;2023-01-04T02:04:36;4.72;;;1.85;;
10811;SDS011;5458;51.496;7.334;2023-01-04T02:07:05;2.53;;;1.70;;
10811;SDS011;5458;51.496;7.334;2023-01-04T02:09:33;6.13;;;1.90;;
10811;SDS011;5458;51.496;7.334;2023-01-04T02:12:00;6.25;;;2.50;;
10811;SDS011;5458;51.496;7.334;2023-01-04T02:14:25;3.17;;;2.28;;
10811;SDS011;5458;51.496;7.334;2023-01-04T02:20:15;4.93;;;2.63;;
10811;SDS011;5458;51.496;7.334;2023-01-04T02:39:39;7.18;;;2.17;;
10811;SDS011;5458;51.496;7.334;2023-01-04T02:45:21;2.88;;;1.70;;
10811;SDS011;5458;51.496;7.334;2023-01-04T02:47:53;4.88;;;2.17;;
10811;SDS011;5458;51.496;7.334;2023-01-04T02:50:47;2.00;;;1.90;;
10811;SDS011;5458;51.496;7.334;2023-01-04T02:53:20;5.10;;;2.25;;
10811;SDS011;5458;51.496;7.334;2023-01-04T02:55:51;5.25;;;2.15;;
10811;SDS011;5458;51.496;7.334;2023-01-04T03:09:51;3.80;;;1.80;;
10811;SDS011;5458;51.496;7.334;2023-01-04T03:12:25;4.95;;;1.98;;
10811;SDS011;5458;51.496;7.334;2023-01-04T03:15:09;1.70;;;1.60;;
10811;SDS011;5458;51.496;7.334;2023-01-04T03:17:41;2.65;;;1.58;;
10811;SDS011;5458;51.496;7.334;2023-01-04T03:20:12;4.03;;;1.58;;
10811;SDS011;5458;51.496;7.334;2023-01-04T03:22:45;4.55;;;1.92;;
10811;SDS011;5458;51.496;7.334;2023-01-04T03:25:39;3.65;;;1.85;;
10811;SDS011;5458;51.496;7.334;2023-01-04T03:28:27;1.50;;;1.40;;
10811;SDS011;5458;51.496;7.334;2023-01-04T03:34:38;2.10;;;1.60;;
10811;SDS011;5458;51.496;7.334;2023-01-04T03:40:26;2.90;;;1.40;;
10811;SDS011;5458;51.496;7.334;2023-01-04T03:43:14;2.40;;;1.70;;
10811;SDS011;5458;51.496;7.334;2023-01-04T03:46:25;4.68;;;1.83;;
10811;SDS011;5458;51.496;7.334;2023-01-04T03:51:56;2.20;;;1.58;;
10811;SDS011;5458;51.496;7.334;2023-01-04T03:54:28;7.20;;;2.13;;
10811;SDS011;5458;51.496;7.334;2023-01-04T03:56:59;3.03;;;2.15;;
10811;SDS011;5458;51.496;7.334;2023-01-04T03:59:26;2.53;;;2.08;;
10811;SDS011;5458;51.496;7.334;2023-01-04T04:01:52;3.42;;;3.00;;
10811;SDS011;5458;51.496;7.334;2023-01-04T04:04:18;3.17;;;1.90;;
10811;SDS011;5458;51.496;7.334;2023-01-04T04:07:02;3.63;;;2.03;;
10811;SDS011;5458;51.496;7.334;2023-01-04T04:09:47;1.80;;;1.70;;
10811;SDS011;5458;51.496;7.334;2023-01-04T04:12:12;3.85;;;1.77;;
10811;SDS011;5458;51.496;7.334;2023-01-04T04:14:38;2.58;;;2.22;;
10811;SDS011;5458;51.496;7.334;2023-01-04T04:17:03;2.22;;;2.00;;
10811;SDS011;5458;51.496;7.334;2023-01-04T04:19:29;3.13;;;1.90;;
10811;SDS011;5458;51.496;7.334;2023-01-04T04:21:54;4.05;;;2.17;;
10811;SDS011;5458;51.496;7.334;2023-01-04T04:24:22;2.10;;;1.90;;
10811;SDS011;5458;51.496;7.334;2023-01-04T04:26:49;3.03;;;2.15;;
10811;SDS011;5458;51.496;7.334;2023-01-04T04:29:16;3.17;;;2.13;;
10811;SDS011;5458;51.496;7.334;2023-01-04T04:31:42;4.25;;;1.90;;
10811;SDS011;5458;51.496;7.334;2023-01-04T04:34:08;3.67;;;1.90;;
10811;SDS011;5458;51.496;7.334;2023-01-04T04:36:34;2.25;;;1.60;;
10811;SDS011;5458;51.496;7.334;2023-01-04T04:39:00;3.25;;;2.17;;
10811;SDS011;5458;51.496;7.334;2023-01-04T04:41:25;3.50;;;2.15;;
10811;SDS011;5458;51.496;7.334;2023-01-04T04:44:07;3.45;;;1.80;;
10811;SDS011;5458;51.496;7.334;2023-01-04T04:46:34;3.22;;;1.70;;
10811;SDS011;5458;51.496;7.334;2023-01-04T04:49:00;2.45;;;1.60;;
10811;SDS011;5458;51.496;7.334;2023-01-04T04:51:25;1.90;;;1.55;;
10811;SDS011;5458;51.496;7.334;2023-01-04T04:53:51;4.15;;;1.88;;
10811;SDS011;5458;51.496;7.334;2023-01-04T04:56:17;3.03;;;2.00;;
10811;SDS011;5458;51.496;7.334;2023-01-04T04:58:42;1.77;;;1.67;;
10811;SDS011;5458;51.496;7.334;2023-01-04T05:01:08;1.80;;;1.70;;
10811;SDS011;5458;51.496;7.334;2023-01-04T05:03:33;2.45;;;2.25;;
10811;SDS011;5458;51.496;7.334;2023-01-04T05:05:59;1.95;;;1.77;;
10811;SDS011;5458;51.496;7.334;2023-01-04T05:08:25;1.70;;;1.52;;
10811;SDS011;5458;51.496;7.334;2023-01-04T05:10:51;2.55;;;1.50;;
10811;SDS011;5458;51.496;7.334;2023-01-04T05:13:16;2.53;;;1.63;;
10811;SDS011;5458;51.496;7.334;2023-01-04T05:15:43;2.67;;;1.52;;
10811;SDS011;5458;51.496;7.334;2023-01-04T05:18:14;1.67;;;1.25;;
10811;SDS011;5458;51.496;7.334;2023-01-04T05:20:40;1.83;;;1.40;;
10811;SDS011;5458;51.496;7.334;2023-01-04T05:23:06;2.28;;;1.73;;
10811;SDS011;5458;51.496;7.334;2023-01-04T05:25:34;3.20;;;1.48;;
10811;SDS011;5458;51.496;7.334;2023-01-04T05:27:59;1.70;;;1.23;;
10811;SDS011;5458;51.496;7.334;2023-01-04T05:30:25;2.00;;;1.40;;
10811;SDS011;5458;51.496;7.334;2023-01-04T05:33:09;1.38;;;1.27;;
10811;SDS011;5458;51.496;7.334;2023-01-04T05:35:35;2.25;;;1.35;;
10811;SDS011;5458;51.496;7.334;2023-01-04T05:38:01;1.40;;;1.30;;
10811;SDS011;5458;51.496;7.334;2023-01-04T05:40:27;1.30;;;1.20;;
10811;SDS011;5458;51.496;7.334;2023-01-04T05:42:53;1.55;;;1.40;;
10811;SDS011;5458;51.496;7.334;2023-01-04T05:45:19;2.38;;;1.45;;
10811;SDS011;5458;51.496;7.334;2023-01-04T05:47:47;1.60;;;1.50;;
10811;SDS011;5458;51.496;7.334;2023-01-04T05:50:14;1.40;;;1.30;;
10811;SDS011;5458;51.496;7.334;2023-01-04T05:52:40;1.48;;;1.15;;
10811;SDS011;5458;51.496;7.334;2023-01-04T05:55:06;1.85;;;1.60;;
10811;SDS011;5458;51.496;7.334;2023-01-04T05:57:32;1.30;;;1.20;;
10811;SDS011;5458;51.496;7.334;2023-01-04T05:59:58;1.98;;;1.45;;
10811;SDS011;5458;51.496;7.334;2023-01-04T06:02:24;1.60;;;1.50;;
10811;SDS011;5458;51.496;7.334;2023-01-04T06:04:52;1.40;;;1.35;;
10811;SDS011;5458;51.496;7.334;2023-01-04T06:07:18;3.22;;;1.50;;
10811;SDS011;5458;51.496;7.334;2023-01-04T06:09:43;1.33;;;1.30;;
10811;SDS011;5458;51.496;7.334;2023-01-04T06:12:09;1.38;;;1.27;;
10811;SDS011;5458;51.496;7.334;2023-01-04T06:14:35;1.38;;;1.30;;
10811;SDS011;5458;51.496;7.334;2023-01-04T06:17:01;1.40;;;1.30;;
10811;SDS011;5458;51.496;7.334;2023-01-04T06:19:26;1.83;;;1.73;;
10811;SDS011;5458;51.496;7.334;2023-01-04T06:21:52;1.65;;;1.30;;
10811;SDS011;5458;51.496;7.334;2023-01-04T06:24:18;1.30;;;1.30;;
10811;SDS011;5458;51.496;7.334;2023-01-04T06:26:44;1.30;;;1.20;;
10811;SDS011;5458;51.496;7.334;2023-01-04T06:29:11;1.58;;;1.48;;
10811;SDS011;5458;51.496;7.334;2023-01-04T06:31:37;1.55;;;1.45;;
10811;SDS011;5458;51.496;7.334;2023-01-04T06:34:02;1.48;;;1.20;;
10811;SDS011;5458;51.496;7.334;2023-01-04T06:36:28;1.30;;;1.30;;
10811;SDS011;5458;51.496;7.334;2023-01-04T06:38:58;1.10;;;1.10;;
10811;SDS011;5458;51.496;7.334;2023-01-04T06:41:24;1.25;;;1.15;;
10811;SDS011;5458;51.496;7.334;2023-01-04T06:43:50;1.40;;;1.30;;
10811;SDS011;5458;51.496;7.334;2023-01-04T06:46:17;1.77;;;1.15;;
10811;SDS011;5458;51.496;7.334;2023-01-04T06:48:43;1.48;;;0.80;;
10811;SDS011;5458;51.496;7.334;2023-01-04T06:51:08;1.02;;;1.02;;
10811;SDS011;5458;51.496;7.334;2023-01-04T06:53:34;1.27;;;1.20;;
10811;SDS011;5458;51.496;7.334;2023-01-04T06:56:00;2.00;;;1.10;;
10811;SDS011;5458;51.496;7.334;2023-01-04T06:58:26;0.90;;;0.90;;
10811;SDS011;5458;51.496;7.334;2023-01-04T07:00:52;1.17;;;1.08;;
10811;SDS011;5458;51.496;7.334;2023-01-04T07:03:18;0.90;;;0.90;;
10811;SDS011;5458;51.496;7.334;2023-01-04T07:05:44;6.15;;;1.75;;
10811;SDS011;5458;51.496;7.334;2023-01-04T07:08:10;1.80;;;1.13;;
10811;SDS011;5458;51.496;7.334;2023-01-04T07:10:37;1.00;;;1.00;;
10811;SDS011;5458;51.496;7.334;2023-01-04T07:13:03;1.00;;;1.00;;
10811;SDS011;5458;51.496;7.334;2023-01-04T07:15:30;1.13;;;1.13;;
10811;SDS011;5458;51.496;7.334;2023-01-04T07:17:55;1.20;;;1.10;;
10811;SDS011;5458;51.496;7.334;2023-01-04T07:20:21;1.25;;;1.15;;
10811;SDS011;5458;51.496;7.334;2023-01-04T07:22:47;1.17;;;1.10;;
10811;SDS011;5458;51.496;7.334;2023-01-04T07:25:12;1.30;;;1.20;;
10811;SDS011;5458;51.496;7.334;2023-01-04T07:27:38;3.42;;;1.20;;
10811;SDS011;5458;51.496;7.334;2023-01-04T07:30:03;1.30;;;1.20;;
10811;SDS011;5458;51.496;7.334;2023-01-04T07:32:30;1.00;;;1.00;;
10811;SDS011;5458;51.496;7.334;2023-01-04T07:34:56;1.20;;;1.10;;
10811;SDS011;5458;51.496;7.334;2023-01-04T07:37:22;2.65;;;1.33;;
10811;SDS011;5458;51.496;7.334;2023-01-04T07:39:48;1.10;;;1.00;;
10811;SDS011;5458;51.496;7.334;2023-01-04T07:42:13;1.58;;;1.23;;
10811;SDS011;5458;51.496;7.334;2023-01-04T07:44:39;1.65;;;1.40;;
10811;SDS011;5458;51.496;7.334;2023-01-04T07:47:05;1.10;;;1.00;;
10811;SDS011;5458;51.496;7.334;2023-01-04T07:49:31;1.73;;;1.25;;
10811;SDS011;5458;51.496;7.334;2023-01-04T07:51:56;1.80;;;1.48;;
10811;SDS011;5458;51.496;7.334;2023-01-04T07:54:22;1.58;;;1.48;;
10811;SDS011;5458;51.496;7.334;2023-01-04T07:56:48;2.13;;;1.88;;
10811;SDS011;5458;51.496;7.334;2023-01-04T07:59:15;1.63;;;1.52;;
10811;SDS011;5458;51.496;7.334;2023-01-04T08:01:42;1.88;;;1.35;;
10811;SDS011;5458;51.496;7.334;2023-01-04T08:04:08;1.60;;;1.40;;
10811;SDS011;5458;51.496;7.334;2023-01-04T08:06:35;1.38;;;1.38;;
10811;SDS011;5458;51.496;7.334;2023-01-04T08:09:02;1.23;;;1.23;;
10811;SDS011;5458;51.496;7.334;2023-01-04T08:11:28;4.15;;;2.00;;
10811;SDS011;5458;51.496;7.334;2023-01-04T08:13:54;3.15;;;1.73;;
10811;SDS011;5458;51.496;7.334;2023-01-04T08:18:55;1.63;;;1.33;;
10811;SDS011;5458;51.496;7.334;2023-01-04T08:21:21;2.17;;;1.27;;
10811;SDS011;5458;51.496;7.334;2023-01-04T08:23:47;2.72;;;1.80;;
10811;SDS011;5458;51.496;7.334;2023-01-04T08:26:14;2.50;;;1.50;;
10811;SDS011;5458;51.496;7.334;2023-01-04T08:28:40;1.40;;;1.30;;
10811;SDS011;5458;51.496;7.334;2023-01-04T08:31:08;1.55;;;1.48;;
10811;SDS011;5458;51.496;7.334;2023-01-04T08:33:36;1.52;;;1.42;;
10811;SDS011;5458;51.496;7.334;2023-01-04T08:36:10;1.67;;;1.60;;
10811;SDS011;5458;51.496;7.334;2023-01-04T08:38:47;1.75;;;1.40;;
10811;SDS011;5458;51.496;7.334;2023-01-04T08:41:15;2.38;;;1.65;;
10811;SDS011;5458;51.496;7.334;2023-01-04T08:43:41;3.50;;;1.70;;
10811;SDS011;5458;51.496;7.334;2023-01-04T08:46:07;1.67;;;1.52;;
10811;SDS011;5458;51.496;7.334;2023-01-04T08:48:35;1.60;;;1.40;;
10811;SDS011;5458;51.496;7.334;2023-01-04T08:51:01;1.80;;;1.70;;
10811;SDS011;5458;51.496;7.334;2023-01-04T08:53:32;1.60;;;1.40;;
10811;SDS011;5458;51.496;7.334;2023-01-04T08:55:58;1.13;;;1.10;;
10811;SDS011;5458;51.496;7.334;2023-01-04T08:58:25;1.40;;;1.30;;
10811;SDS011;5458;51.496;7.334;2023-01-04T09:00:51;1.10;;;1.10;;
10811;SDS011;5458;51.496;7.334;2023-01-04T09:03:17;1.20;;;1.10;;
10811;SDS011;5458;51.496;7.334;2023-01-04T09:05:42;2.83;;;2.28;;
10811;SDS011;5458;51.496;7.334;2023-01-04T09:08:09;1.80;;;1.70;;
10811;SDS011;5458;51.496;7.334;2023-01-04T09:10:36;1.27;;;1.27;;
10811;SDS011;5458;51.496;7.334;2023-01-04T09:13:02;1.10;;;1.00;;
10811;SDS011;5458;51.496;7.334;2023-01-04T09:15:28;1.00;;;1.00;;
10811;SDS011;5458;51.496;7.334;2023-01-04T09:17:55;1.00;;;1.00;;
10811;SDS011;5458;51.496;7.334;2023-01-04T09:20:20;1.08;;;1.00;;
10811;SDS011;5458;51.496;7.334;2023-01-04T09:22:46;1.45;;;1.10;;
10811;SDS011;5458;51.496;7.334;2023-01-04T09:25:11;1.90;;;1.33;;
10811;SDS011;5458;51.496;7.334;2023-01-04T09:27:37;1.10;;;1.10;;
10811;SDS011;5458;51.496;7.334;2023-01-04T09:30:03;2.55;;;1.20;;
10811;SDS011;5458;51.496;7.334;2023-01-04T09:32:30;1.10;;;1.10;;
10811;SDS011;5458;51.496;7.334;2023-01-04T09:34:55;1.30;;;1.20;;
10811;SDS011;5458;51.496;7.334;2023-01-04T09:37:21;1.67;;;1.52;;
10811;SDS011;5458;51.496;7.334;2023-01-04T09:39:47;3.30;;;1.60;;
10811;SDS011;5458;51.496;7.334;2023-01-04T09:42:15;2.17;;;1.63;;
10811;SDS011;5458;51.496;7.334;2023-01-04T09:44:48;1.50;;;1.38;;
10811;SDS011;5458;51.496;7.334;2023-01-04T09:47:35;2.17;;;1.40;;
10811;SDS011;5458;51.496;7.334;2023-01-04T09:55:29;3.35;;;1.70;;
10811;SDS011;5458;51.496;7.334;2023-01-04T09:58:02;1.38;;;1.10;;
10811;SDS011;5458;51.496;7.334;2023-01-04T10:00:50;1.35;;;1.25;;
10811;SDS011;5458;51.496;7.334;2023-01-04T10:03:35;1.63;;;1.20;;
10811;SDS011;5458;51.496;7.334;2023-01-04T10:06:06;3.38;;;1.33;;
10811;SDS011;5458;51.496;7.334;2023-01-04T10:08:35;2.75;;;1.52;;
10811;SDS011;5458;51.496;7.334;2023-01-04T10:19:51;1.67;;;1.10;;
10811;SDS011;5458;51.496;7.334;2023-01-04T10:22:23;1.40;;;1.13;;
10811;SDS011;5458;51.496;7.334;2023-01-04T10:27:56;2.50;;;1.40;;
10811;SDS011;5458;51.496;7.334;2023-01-04T10:36:05;2.70;;;2.50;;
10811;SDS011;5458;51.496;7.334;2023-01-04T10:38:45;3.42;;;1.40;;
10811;SDS011;5458;51.496;7.334;2023-01-04T10:41:12;2.20;;;1.35;;
10811;SDS011;5458;51.496;7.334;2023-01-04T10:43:58;1.90;;;1.33;;
10811;SDS011;5458;51.496;7.334;2023-01-04T10:46:32;2.65;;;1.50;;
10811;SDS011;5458;51.496;7.334;2023-01-04T10:49:09;2.08;;;1.20;;
10811;SDS011;5458;51.496;7.334;2023-01-04T10:51:44;1.80;;;1.70;;
10811;SDS011;5458;51.496;7.334;2023-01-04T10:54:24;1.70;;;1.20;;
10811;SDS011;5458;51.496;7.334;2023-01-04T10:57:11;3.58;;;1.20;;
10811;SDS011;5458;51.496;7.334;2023-01-04T11:05:56;1.30;;;1.20;;
10811;SDS011;5458;51.496;7.334;2023-01-04T11:08:24;2.08;;;1.25;;
10811;SDS011;5458;51.496;7.334;2023-01-04T11:10:55;1.75;;;1.10;;
10811;SDS011;5458;51.496;7.334;2023-01-04T11:13:27;1.65;;;1.08;;
10811;SDS011;5458;51.496;7.334;2023-01-04T11:15:53;0.90;;;0.90;;
10811;SDS011;5458;51.496;7.334;2023-01-04T11:18:19;1.67;;;1.00;;
10811;SDS011;5458;51.496;7.334;2023-01-04T11:20:45;1.58;;;1.17;;
10811;SDS011;5458;51.496;7.334;2023-01-04T11:23:12;1.52;;;1.42;;
10811;SDS011;5458;51.496;7.334;2023-01-04T11:26:14;2.17;;;1.17;;
10811;SDS011;5458;51.496;7.334;2023-01-04T11:28:45;1.73;;;1.58;;
10811;SDS011;5458;51.496;7.334;2023-01-04T11:31:16;1.50;;;1.40;;
10811;SDS011;5458;51.496;7.334;2023-01-04T11:33:58;1.90;;;1.80;;
10811;SDS011;5458;51.496;7.334;2023-01-04T11:42:20;2.50;;;1.50;;
10811;SDS011;5458;51.496;7.334;2023-01-04T11:44:58;2.97;;;1.88;;
10811;SDS011;5458;51.496;7.334;2023-01-04T11:47:24;1.83;;;1.60;;
10811;SDS011;5458;51.496;7.334;2023-01-04T11:49:52;3.42;;;1.80;;
10811;SDS011;5458;51.496;7.334;2023-01-04T11:58:11;3.03;;;1.90;;
10811;SDS011;5458;51.496;7.334;2023-01-04T12:00:36;2.20;;;2.00;;
10811;SDS011;5458;51.496;7.334;2023-01-04T12:03:12;4.18;;;2.10;;
10811;SDS011;5458;51.496;7.334;2023-01-04T12:05:40;2.38;;;2.08;;
10811;SDS011;5458;51.496;7.334;2023-01-04T12:08:06;1.65;;;1.55;;
10811;SDS011;5458;51.496;7.334;2023-01-04T12:11:00;2.00;;;1.75;;
10811;SDS011;5458;51.496;7.334;2023-01-04T12:13:28;1.75;;;1.63;;
10811;SDS011;5458;51.496;7.334;2023-01-04T12:16:07;2.42;;;1.90;;
10811;SDS011;5458;51.496;7.334;2023-01-04T12:18:50;3.58;;;2.08;;
10811;SDS011;5458;51.496;7.334;2023-01-04T12:21:20;1.65;;;1.55;;
10811;SDS011;5458;51.496;7.334;2023-01-04T12:23:48;2.50;;;1.42;;
10811;SDS011;5458;51.496;7.334;2023-01-04T12:26:15;2.63;;;2.13;;
10811;SDS011;5458;51.496;7.334;2023-01-04T12:28:43;1.85;;;1.73;;
10811;SDS011;5458;51.496;7.334;2023-01-04T12:33:44;1.63;;;1.45;;
10811;SDS011;5458;51.496;7.334;2023-01-04T12:36:15;1.05;;;1.05;;
10811;SDS011;5458;51.496;7.334;2023-01-04T12:41:19;2.13;;;1.17;;
10811;SDS011;5458;51.496;7.334;2023-01-04T12:43:46;1.30;;;1.20;;
10811;SDS011;5458;51.496;7.334;2023-01-04T12:57:12;0.80;;;0.80;;
10811;SDS011;5458;51.496;7.334;2023-01-04T12:59:58;3.50;;;1.10;;
10811;SDS011;5458;51.496;7.334;2023-01-04T13:02:40;2.75;;;1.08;;
10811;SDS011;5458;51.496;7.334;2023-01-04T13:15:47;1.00;;;1.00;;
10811;SDS011;5458;51.496;7.334;2023-01-04T13:20:59;1.63;;;1.00;;
10811;SDS011;5458;51.496;7.334;2023-01-04T13:23:35;1.10;;;1.10;;
10811;SDS011;5458;51.496;7.334;2023-01-04T13:29:07;1.42;;;1.10;;
10811;SDS011;5458;51.496;7.334;2023-01-04T13:34:27;0.80;;;0.80;;
10811;SDS011;5458;51.496;7.334;2023-01-04T13:39:36;0.90;;;0.90;;
10811;SDS011;5458;51.496;7.334;2023-01-04T13:42:05;0.82;;;0.82;;
10811;SDS011;5458;51.496;7.334;2023-01-04T13:47:33;0.70;;;0.70;;
10811;SDS011;5458;51.496;7.334;2023-01-04T13:50:00;0.65;;;0.65;;
10811;SDS011;5458;51.496;7.334;2023-01-04T13:52:27;0.80;;;0.80;;
10811;SDS011;5458;51.496;7.334;2023-01-04T13:55:15;0.93;;;0.93;;
10811;SDS011;5458;51.496;7.334;2023-01-04T14:00:20;0.80;;;0.80;;
10811;SDS011;5458;51.496;7.334;2023-01-04T14:02:46;0.70;;;0.70;;
10811;SDS011;5458;51.496;7.334;2023-01-04T14:05:22;1.50;;;0.95;;
10811;SDS011;5458;51.496;7.334;2023-01-04T14:07:48;1.20;;;1.10;;
10811;SDS011;5458;51.496;7.334;2023-01-04T14:10:15;0.70;;;0.70;;
10811;SDS011;5458;51.496;7.334;2023-01-04T14:12:43;0.80;;;0.80;;
10811;SDS011;5458;51.496;7.334;2023-01-04T14:15:18;0.75;;;0.75;;
10811;SDS011;5458;51.496;7.334;2023-01-04T14:38:52;1.75;;;1.65;;
10811;SDS011;5458;51.496;7.334;2023-01-04T14:43:50;2.65;;;0.90;;
10811;SDS011;5458;51.496;7.334;2023-01-04T14:46:25;0.80;;;0.80;;
10811;SDS011;5458;51.496;7.334;2023-01-04T14:48:52;0.73;;;0.73;;
10811;SDS011;5458;51.496;7.334;2023-01-04T14:51:19;1.58;;;0.80;;
10811;SDS011;5458;51.496;7.334;2023-01-04T14:53:49;1.38;;;1.00;;
10811;SDS011;5458;51.496;7.334;2023-01-04T14:56:16;1.02;;;1.00;;
10811;SDS011;5458;51.496;7.334;2023-01-04T15:01:30;0.90;;;0.90;;
10811;SDS011;5458;51.496;7.334;2023-01-04T15:03:55;1.30;;;1.20;;
10811;SDS011;5458;51.496;7.334;2023-01-04T15:06:21;1.35;;;1.20;;
10811;SDS011;5458;51.496;7.334;2023-01-04T15:08:46;0.80;;;0.80;;
10811;SDS011;5458;51.496;7.334;2023-01-04T15:11:12;2.53;;;1.27;;
10811;SDS011;5458;51.496;7.334;2023-01-04T15:13:39;0.70;;;0.70;;
10811;SDS011;5458;51.496;7.334;2023-01-04T15:16:06;2.05;;;1.15;;
10811;SDS011;5458;51.496;7.334;2023-01-04T15:18:35;3.20;;;0.98;;
10811;SDS011;5458;51.496;7.334;2023-01-04T15:21:03;3.15;;;1.23;;
10811;SDS011;5458;51.496;7.334;2023-01-04T15:23:29;1.00;;;1.00;;
10811;SDS011;5458;51.496;7.334;2023-01-04T15:25:55;1.65;;;1.20;;
10811;SDS011;5458;51.496;7.334;2023-01-04T15:28:20;2.50;;;1.00;;
10811;SDS011;5458;51.496;7.334;2023-01-04T15:30:48;2.05;;;1.10;;
10811;SDS011;5458;51.496;7.334;2023-01-04T15:33:14;1.10;;;1.00;;
10811;SDS011;5458;51.496;7.334;2023-01-04T15:35:39;1.70;;;1.60;;
10811;SDS011;5458;51.496;7.334;2023-01-04T15:38:05;2.13;;;1.85;;
10811;SDS011;5458;51.496;7.334;2023-01-04T15:40:31;1.60;;;1.50;;
10811;SDS011;5458;51.496;7.334;2023-01-04T15:42:56;2.15;;;1.60;;
10811;SDS011;5458;51.496;7.334;2023-01-04T15:45:36;2.53;;;2.30;;
10811;SDS011;5458;51.496;7.334;2023-01-04T15:48:03;2.88;;;1.60;;
10811;SDS011;5458;51.496;7.334;2023-01-04T15:50:32;2.22;;;2.03;;
10811;SDS011;5458;51.496;7.334;2023-01-04T15:52:59;2.75;;;2.53;;
10811;SDS011;5458;51.496;7.334;2023-01-04T15:55:24;2.95;;;1.73;;
10811;SDS011;5458;51.496;7.334;2023-01-04T15:57:50;3.38;;;2.20;;
10811;SDS011;5458;51.496;7.334;2023-01-04T16:00:16;2.72;;;2.53;;
10811;SDS011;5458;51.496;7.334;2023-01-04T16:02:42;2.55;;;2.22;;
10811;SDS011;5458;51.496;7.334;2023-01-04T16:05:07;3.42;;;2.55;;
10811;SDS011;5458;51.496;7.334;2023-01-04T16:07:33;3.25;;;2.80;;
10811;SDS011;5458;51.496;7.334;2023-01-04T16:09:59;2.42;;;2.22;;
10811;SDS011;5458;51.496;7.334;2023-01-04T16:12:25;4.82;;;2.92;;
10811;SDS011;5458;51.496;7.334;2023-01-04T16:15:06;3.97;;;2.90;;
10811;SDS011;5458;51.496;7.334;2023-01-04T16:17:40;3.45;;;2.50;;
10811;SDS011;5458;51.496;7.334;2023-01-04T16:20:07;4.97;;;2.65;;
10811;SDS011;5458;51.496;7.334;2023-01-04T16:22:34;3.45;;;2.30;;
10811;SDS011;5458;51.496;7.334;2023-01-04T16:25:00;2.65;;;2.03;;
10811;SDS011;5458;51.496;7.334;2023-01-04T16:27:25;4.55;;;2.53;;
10811;SDS011;5458;51.496;7.334;2023-01-04T16:29:51;4.45;;;2.17;;
10811;SDS011;5458;51.496;7.334;2023-01-04T16:32:17;5.13;;;2.30;;
10811;SDS011;5458;51.496;7.334;2023-01-04T16:34:43;4.22;;;2.33;;
10811;SDS011;5458;51.496;7.334;2023-01-04T16:37:09;5.47;;;2.25;;
10811;SDS011;5458;51.496;7.334;2023-01-04T16:39:34;3.63;;;2.17;;
10811;SDS011;5458;51.496;7.334;2023-01-04T16:42:00;5.50;;;2.40;;
10811;SDS011;5458;51.496;7.334;2023-01-04T16:44:25;6.80;;;2.90;;
10811;SDS011;5458;51.496;7.334;2023-01-04T16:46:51;6.53;;;3.17;;
10811;SDS011;5458;51.496;7.334;2023-01-04T16:49:17;3.35;;;2.28;;
10811;SDS011;5458;51.496;7.334;2023-01-04T16:51:43;3.55;;;2.15;;
10811;SDS011;5458;51.496;7.334;2023-01-04T16:54:11;3.42;;;2.50;;
10811;SDS011;5458;51.496;7.334;2023-01-04T16:56:39;3.65;;;2.42;;
10811;SDS011;5458;51.496;7.334;2023-01-04T16:59:05;5.30;;;2.90;;
10811;SDS011;5458;51.496;7.334;2023-01-04T17:01:33;3.90;;;2.25;;
10811;SDS011;5458;51.496;7.334;2023-01-04T17:04:04;6.00;;;2.72;;
10811;SDS011;5458;51.496;7.334;2023-01-04T17:06:33;5.30;;;1.90;;
10811;SDS011;5458;51.496;7.334;2023-01-04T17:09:08;7.18;;;2.72;;
10811;SDS011;5458;51.496;7.334;2023-01-04T17:11:36;10.65;;;2.63;;
10811;SDS011;5458;51.496;7.334;2023-01-04T17:14:02;5.07;;;2.20;;
10811;SDS011;5458;51.496;7.334;2023-01-04T17:16:29;3.83;;;2.38;;
10811;SDS011;5458;51.496;7.334;2023-01-04T17:18:55;3.78;;;1.88;;
10811;SDS011;5458;51.496;7.334;2023-01-04T17:21:22;4.38;;;1.98;;
10811;SDS011;5458;51.496;7.334;2023-01-04T17:23:50;3.97;;;2.05;;
10811;SDS011;5458;51.496;7.334;2023-01-04T17:26:18;4.55;;;2.17;;
10811;SDS011;5458;51.496;7.334;2023-01-04T17:28:46;5.55;;;1.70;;
10811;SDS011;5458;51.496;7.334;2023-01-04T17:31:16;3.85;;;1.85;;
10811;SDS011;5458;51.496;7.334;2023-01-04T17:33:44;2.20;;;1.08;;
10811;SDS011;5458;51.496;7.334;2023-01-04T17:36:11;3.67;;;1.38;;
10811;SDS011;5458;51.496;7.334;2023-01-04T17:38:39;1.27;;;1.02;;
10811;SDS011;5458;51.496;7.334;2023-01-04T17:41:06;3.30;;;1.40;;
10811;SDS011;5458;51.496;7.334;2023-01-04T17:43:36;3.88;;;1.45;;
10811;SDS011;5458;51.496;7.334;2023-01-04T17:46:03;2.60;;;1.30;;
10811;SDS011;5458;51.496;7.334;2023-01-04T17:48:31;1.85;;;1.75;;
10811;SDS011;5458;51.496;7.334;2023-01-04T17:51:30;6.03;;;2.10;;